createdAt,value
2018-11-01T00:00:22.338Z,14.64
2018-11-01T00:02:51.627Z,14.62
2018-11-01T00:05:20.741Z,14.53
2018-11-01T00:07:49.837Z,14.48
2018-11-01T00:10:18.914Z,14.38
2018-11-01T00:12:48.014Z,14.37
2018-11-01T00:15:18.042Z,14.34
2018-11-01T00:17:47.657Z,14.32
2018-11-01T00:20:16.697Z,14.29
2018-11-01T00:22:45.823Z,14.16
2018-11-01T00:25:15.596Z,14.12
2018-11-01T00:27:44.685Z,14.04
2018-11-01T00:30:13.619Z,13.99
2018-11-01T00:32:42.821Z,13.95
2018-11-01T00:35:11.735Z,13.95
2018-11-01T00:37:40.789Z,13.94
2018-11-01T00:40:12.573Z,13.95
2018-11-01T00:42:41.870Z,13.99
2018-11-01T00:45:11.702Z,14.03
2018-11-01T00:47:40.856Z,14.03
2018-11-01T00:50:13.113Z,14.05
2018-11-01T00:52:43.375Z,14.03
2018-11-01T00:55:13.518Z,13.98
2018-11-01T00:57:42.873Z,13.97
2018-11-01T01:00:13.959Z,14.12
2018-11-01T01:02:42.980Z,14.25
2018-11-01T01:05:12.425Z,14.28
2018-11-01T01:07:41.691Z,14.24
2018-11-01T01:10:15.165Z,14.19
2018-11-01T01:12:45.467Z,14.10
2018-11-01T01:15:14.497Z,14.01
2018-11-01T01:17:43.729Z,13.95
2018-11-01T01:20:13.946Z,13.93
2018-11-01T01:22:44.283Z,14.19
2018-11-01T01:25:14.868Z,14.35
2018-11-01T01:27:43.986Z,14.44
2018-11-01T01:30:16.223Z,14.40
2018-11-01T01:32:45.886Z,14.37
2018-11-01T01:35:15.378Z,14.36
2018-11-01T01:37:45.677Z,14.34
2018-11-01T01:40:15.025Z,14.25
2018-11-01T01:42:50.647Z,14.20
2018-11-01T01:45:20.876Z,14.12
2018-11-01T01:47:49.862Z,14.09
2018-11-01T01:50:19.972Z,14.10
2018-11-01T01:52:50.277Z,14.12
2018-11-01T01:55:19.464Z,14.09
2018-11-01T01:57:48.620Z,14.07
2018-11-01T02:00:19.919Z,14.07
2018-11-01T02:02:50.439Z,14.05
2018-11-01T02:05:20.081Z,13.98
2018-11-01T02:07:49.478Z,13.90
2018-11-01T02:10:19.041Z,13.83
2018-11-01T02:12:48.514Z,13.73
2018-11-01T02:15:19.838Z,13.63
2018-11-01T02:17:49.142Z,13.51
2018-11-01T02:20:19.269Z,13.43
2018-11-01T02:22:48.429Z,13.38
2018-11-01T02:25:17.705Z,13.38
2018-11-01T02:27:51.834Z,13.47
2018-11-01T02:30:21.227Z,13.49
2018-11-01T02:32:50.134Z,13.54
2018-11-01T02:35:19.798Z,13.65
2018-11-01T02:37:48.960Z,13.65
2018-11-01T02:40:18.471Z,13.60
2018-11-01T02:42:47.742Z,13.55
2018-11-01T02:45:16.989Z,13.56
2018-11-01T02:47:46.003Z,13.62
2018-11-01T02:50:15.404Z,13.56
2018-11-01T02:52:44.592Z,13.59
2018-11-01T02:55:13.666Z,13.60
2018-11-01T02:57:42.638Z,13.59
2018-11-01T03:00:14.243Z,13.61
2018-11-01T03:02:43.444Z,13.68
2018-11-01T03:05:13.175Z,13.65
2018-11-01T03:07:42.240Z,13.57
2018-11-01T03:10:12.706Z,13.56
2018-11-01T03:12:42.691Z,13.50
2018-11-01T03:15:12.815Z,13.51
2018-11-01T03:17:41.782Z,13.49
2018-11-01T03:20:12.069Z,13.50
2018-11-01T03:22:41.034Z,13.50
2018-11-01T03:25:10.437Z,13.56
2018-11-01T03:27:39.665Z,13.55
2018-11-01T03:30:09.370Z,13.49
2018-11-01T03:32:38.530Z,13.45
2018-11-01T03:35:10.230Z,13.38
2018-11-01T03:37:39.219Z,13.25
2018-11-01T03:40:09.640Z,13.16
2018-11-01T03:42:39.522Z,13.22
2018-11-01T03:45:09.846Z,13.26
2018-11-01T03:47:39.591Z,13.19
2018-11-01T03:50:08.910Z,13.18
2018-11-01T03:52:38.010Z,13.22
2018-11-01T03:55:09.858Z,13.20
2018-11-01T03:57:44.562Z,13.19
2018-11-01T04:00:16.540Z,13.17
2018-11-01T04:02:47.138Z,13.23
2018-11-01T04:05:16.489Z,13.22
2018-11-01T04:07:45.632Z,13.16
2018-11-01T04:10:14.694Z,13.22
2018-11-01T04:12:43.777Z,13.22
2018-11-01T04:15:14.059Z,13.19
2018-11-01T04:17:43.475Z,13.14
2018-11-01T04:20:13.446Z,13.09
2018-11-01T04:22:43.335Z,13.06
2018-11-01T04:25:12.886Z,13.06
2018-11-01T04:27:42.108Z,13.11
2018-11-01T04:30:11.423Z,13.10
2018-11-01T04:32:40.522Z,13.07
2018-11-01T04:35:09.913Z,13.10
2018-11-01T04:37:39.109Z,13.09
2018-11-01T04:40:09.053Z,13.08
2018-11-01T04:42:38.392Z,13.13
2018-11-01T04:45:08.958Z,13.06
2018-11-01T04:47:38.482Z,13.02
2018-11-01T04:50:08.304Z,13.03
2018-11-01T04:52:37.476Z,13.10
2018-11-01T04:55:07.509Z,13.17
2018-11-01T04:57:37.160Z,13.11
2018-11-01T05:00:08.705Z,13.15
2018-11-01T05:02:38.207Z,13.23
2018-11-01T05:05:07.292Z,13.33
2018-11-01T05:07:36.505Z,13.35
2018-11-01T05:10:06.897Z,13.41
2018-11-01T05:12:35.942Z,13.55
2018-11-01T05:15:05.272Z,13.65
2018-11-01T05:17:34.927Z,13.81
2018-11-01T05:20:04.239Z,13.95
2018-11-01T05:22:33.408Z,14.04
2018-11-01T05:25:02.493Z,14.18
2018-11-01T05:27:31.694Z,14.31
2018-11-01T05:30:00.869Z,14.39
2018-11-01T05:32:30.345Z,14.52
2018-11-01T05:34:59.284Z,14.63
2018-11-01T05:37:28.375Z,14.49
2018-11-01T05:40:02.176Z,14.47
2018-11-01T05:42:32.548Z,14.57
2018-11-01T05:45:01.865Z,14.60
2018-11-01T05:47:31.772Z,14.51
2018-11-01T05:50:01.101Z,14.61
2018-11-01T05:52:30.518Z,14.58
2018-11-01T05:54:59.512Z,14.49
2018-11-01T05:57:28.750Z,14.46
2018-11-01T05:59:58.159Z,14.70
2018-11-01T06:02:31.433Z,14.81
2018-11-01T06:05:00.701Z,14.95
2018-11-01T06:07:43.540Z,15.02
2018-11-01T06:10:13.598Z,15.26
2018-11-01T06:12:42.719Z,15.41
2018-11-01T06:15:12.174Z,15.51
2018-11-01T06:17:41.641Z,15.59
2018-11-01T06:20:11.446Z,15.71
2018-11-01T06:22:40.927Z,15.82
2018-11-01T06:25:10.751Z,15.86
2018-11-01T06:27:40.330Z,15.96
2018-11-01T06:30:15.122Z,16.06
2018-11-01T06:32:45.340Z,16.15
2018-11-01T06:35:25.517Z,16.26
2018-11-01T06:37:54.870Z,16.38
2018-11-01T06:40:24.453Z,16.30
2018-11-01T06:42:54.679Z,16.42
2018-11-01T06:45:24.164Z,16.59
2018-11-01T06:47:53.275Z,16.73
2018-11-01T06:50:22.513Z,16.73
2018-11-01T06:52:52.051Z,16.92
2018-11-01T06:55:21.426Z,17.03
2018-11-01T06:57:50.355Z,17.16
2018-11-01T07:00:20.016Z,17.32
2018-11-01T07:02:49.335Z,17.48
2018-11-01T07:05:18.568Z,17.61
2018-11-01T07:07:48.172Z,17.73
2018-11-01T07:10:18.392Z,17.85
2018-11-01T07:12:48.633Z,17.95
2018-11-01T07:15:20.635Z,18.07
2018-11-01T07:17:49.760Z,18.06
2018-11-01T07:20:18.908Z,18.12
2018-11-01T07:22:48.010Z,18.20
2018-11-01T07:25:17.955Z,18.32
2018-11-01T07:27:47.076Z,18.38
2018-11-01T07:30:17.381Z,18.46
2018-11-01T07:32:46.875Z,18.48
2018-11-01T07:35:16.308Z,18.53
2018-11-01T07:37:46.653Z,18.56
2018-11-01T07:40:17.042Z,18.52
2018-11-01T07:42:46.236Z,18.60
2018-11-01T07:47:44.449Z,18.86
2018-11-01T07:50:14.222Z,18.92
2018-11-01T07:52:43.408Z,19.02
2018-11-01T07:55:14.069Z,19.01
2018-11-01T07:57:43.063Z,19.05
2018-11-01T08:00:14.664Z,19.07
2018-11-01T08:02:44.669Z,19.06
2018-11-01T08:05:13.994Z,19.15
2018-11-01T08:07:43.110Z,19.26
2018-11-01T08:10:21.924Z,19.31
2018-11-01T08:12:52.673Z,19.45
2018-11-01T08:15:22.870Z,19.38
2018-11-01T08:17:52.082Z,19.49
2018-11-01T08:20:21.368Z,19.45
2018-11-01T08:22:50.283Z,19.34
2018-11-01T08:25:19.310Z,19.32
2018-11-01T08:27:48.378Z,19.52
2018-11-01T08:30:18.433Z,19.76
2018-11-01T08:32:47.363Z,19.92
2018-11-01T08:35:16.670Z,20.08
2018-11-01T08:37:46.359Z,20.11
2018-11-01T08:40:15.444Z,20.18
2018-11-01T08:42:44.641Z,20.32
2018-11-01T08:45:15.405Z,19.93
2018-11-01T08:47:44.527Z,20.08
2018-11-01T08:50:14.699Z,20.33
2018-11-01T08:52:44.529Z,20.38
2018-11-01T08:55:14.011Z,20.46
2018-11-01T08:57:44.310Z,20.59
2018-11-01T09:00:14.164Z,20.66
2018-11-01T09:02:44.266Z,20.79
2018-11-01T09:05:14.197Z,20.88
2018-11-01T09:07:43.558Z,20.71
2018-11-01T09:10:16.727Z,20.80
2018-11-01T09:12:45.938Z,20.89
2018-11-01T09:15:21.115Z,20.85
2018-11-01T09:17:50.323Z,21.13
2018-11-01T09:20:19.558Z,21.22
2018-11-01T09:22:48.537Z,21.43
2018-11-01T09:25:17.882Z,21.62
2018-11-01T09:27:46.928Z,21.70
2018-11-01T09:30:17.372Z,21.68
2018-11-01T09:32:46.560Z,21.56
2018-11-01T09:35:15.686Z,21.84
2018-11-01T09:37:44.984Z,22.21
2018-11-01T09:40:15.416Z,22.17
2018-11-01T09:42:45.649Z,21.89
2018-11-01T09:45:14.714Z,21.82
2018-11-01T09:47:43.813Z,22.21
2018-11-01T09:50:13.194Z,22.45
2018-11-01T09:52:42.573Z,22.23
2018-11-01T09:55:11.877Z,22.30
2018-11-01T09:57:41.148Z,22.49
2018-11-01T10:00:12.001Z,22.51
2018-11-01T10:02:41.540Z,22.70
2018-11-01T10:05:11.847Z,22.56
2018-11-01T10:07:41.245Z,22.66
2018-11-01T10:10:11.848Z,22.35
2018-11-01T10:12:41.379Z,22.41
2018-11-01T10:15:11.159Z,22.51
2018-11-01T10:17:40.761Z,22.45
2018-11-01T10:20:11.664Z,22.41
2018-11-01T10:22:41.019Z,22.61
2018-11-01T10:25:11.668Z,22.83
2018-11-01T10:27:40.837Z,22.87
2018-11-01T10:30:13.521Z,22.97
2018-11-01T10:32:43.001Z,22.92
2018-11-01T10:35:12.310Z,22.83
2018-11-01T10:37:41.574Z,22.87
2018-11-01T10:40:13.977Z,22.84
2018-11-01T10:42:43.101Z,22.85
2018-11-01T10:45:12.171Z,22.79
2018-11-01T10:47:41.429Z,22.76
2018-11-01T10:50:15.255Z,22.54
2018-11-01T10:52:44.332Z,22.65
2018-11-01T10:55:13.826Z,22.78
2018-11-01T10:57:43.158Z,22.80
2018-11-01T11:00:18.382Z,22.75
2018-11-01T11:02:49.330Z,22.83
2018-11-01T11:05:19.618Z,22.79
2018-11-01T11:07:49.253Z,23.16
2018-11-01T11:10:18.944Z,23.36
2018-11-01T11:12:47.965Z,23.50
2018-11-01T11:15:17.497Z,23.60
2018-11-01T11:17:46.519Z,23.63
2018-11-01T11:20:15.833Z,23.65
2018-11-01T11:22:44.697Z,23.75
2018-11-01T11:25:13.743Z,23.81
2018-11-01T11:27:42.908Z,23.56
2018-11-01T11:30:13.037Z,23.63
2018-11-01T11:32:43.056Z,23.68
2018-11-01T11:35:12.524Z,23.45
2018-11-01T11:37:41.799Z,23.49
2018-11-01T11:40:12.064Z,23.60
2018-11-01T11:42:41.346Z,23.72
2018-11-01T11:45:12.049Z,23.84
2018-11-01T11:47:41.813Z,23.75
2018-11-01T11:50:12.235Z,23.65
2018-11-01T11:52:54.574Z,23.52
2018-11-01T11:55:24.076Z,23.70
2018-11-01T11:57:53.082Z,23.89
2018-11-01T12:00:22.244Z,23.62
2018-11-01T12:02:51.599Z,23.49
2018-11-01T12:05:20.844Z,23.39
2018-11-01T12:07:49.985Z,23.42
2018-11-01T12:10:19.320Z,23.62
2018-11-01T12:12:48.299Z,23.72
2018-11-01T12:15:17.377Z,23.73
2018-11-01T12:17:46.232Z,23.87
2018-11-01T12:20:15.559Z,23.99
2018-11-01T12:22:44.882Z,24.08
2018-11-01T12:25:15.145Z,24.12
2018-11-01T12:27:44.215Z,24.20
2018-11-01T12:30:13.517Z,24.26
2018-11-01T12:34:12.414Z,24.09
2018-11-01T12:36:41.463Z,23.85
2018-11-01T12:39:10.552Z,23.74
2018-11-01T12:41:39.951Z,23.61
2018-11-01T12:45:38.336Z,23.72
2018-11-01T12:48:07.856Z,23.75
2018-11-01T12:50:36.974Z,23.72
2018-11-01T12:54:36.508Z,23.70
2018-11-01T12:57:05.757Z,23.71
2018-11-01T12:59:34.636Z,23.70
2018-11-01T13:02:03.885Z,23.73
2018-11-01T13:04:32.825Z,23.78
2018-11-01T13:07:01.892Z,23.69
2018-11-01T13:09:30.953Z,23.72
2018-11-01T13:12:00.090Z,23.71
2018-11-01T13:14:28.952Z,23.60
2018-11-01T13:16:57.993Z,23.54
2018-11-01T13:19:26.962Z,23.60
2018-11-01T13:21:56.001Z,23.64
2018-11-01T13:24:25.088Z,23.63
2018-11-01T13:26:54.035Z,23.69
2018-11-01T13:29:23.150Z,23.71
2018-11-01T13:31:52.312Z,23.76
2018-11-01T13:34:21.471Z,23.73
2018-11-01T13:36:50.548Z,23.76
2018-11-01T13:39:20.092Z,23.82
2018-11-01T13:41:49.349Z,23.76
2018-11-01T13:44:18.485Z,23.75
2018-11-01T13:46:47.450Z,23.71
2018-11-01T13:49:16.617Z,23.70
2018-11-01T13:51:49.245Z,23.58
2018-11-01T13:54:18.463Z,23.38
2018-11-01T13:56:47.858Z,23.32
2018-11-01T13:59:16.777Z,23.35
2018-11-01T14:01:46.428Z,23.32
2018-11-01T14:04:15.376Z,23.30
2018-11-01T14:06:44.793Z,23.01
2018-11-01T14:09:14.148Z,23.11
2018-11-01T14:11:43.192Z,23.09
2018-11-01T14:14:12.617Z,23.07
2018-11-01T14:16:41.673Z,22.95
2018-11-01T14:19:11.562Z,22.98
2018-11-01T14:21:40.657Z,22.95
2018-11-01T14:24:10.711Z,22.84
2018-11-01T14:26:39.825Z,22.76
2018-11-01T14:29:08.836Z,22.76
2018-11-01T14:31:38.049Z,22.69
2018-11-01T14:34:08.426Z,22.70
2018-11-01T14:36:37.411Z,22.66
2018-11-01T14:39:10.086Z,22.60
2018-11-01T14:41:38.965Z,22.48
2018-11-01T14:44:08.348Z,22.38
2018-11-01T14:46:37.741Z,22.31
2018-11-01T14:49:07.018Z,22.18
2018-11-01T14:51:36.023Z,22.18
2018-11-01T14:54:05.980Z,22.13
2018-11-01T14:56:36.782Z,22.06
2018-11-01T14:59:05.750Z,21.91
2018-11-01T15:01:35.177Z,21.77
2018-11-01T15:04:04.556Z,21.64
2018-11-01T15:06:33.839Z,21.47
2018-11-01T15:09:03.691Z,21.38
2018-11-01T15:11:32.932Z,21.31
2018-11-01T15:14:01.960Z,21.29
2018-11-01T15:16:31.138Z,21.19
2018-11-01T15:19:00.288Z,21.16
2018-11-01T15:21:29.302Z,21.14
2018-11-01T15:23:58.505Z,21.04
2018-11-01T15:26:27.642Z,21.11
2018-11-01T15:28:56.873Z,21.13
2018-11-01T15:31:26.177Z,21.01
2018-11-01T15:33:55.296Z,20.91
2018-11-01T15:36:24.190Z,20.89
2018-11-01T15:38:53.536Z,20.86
2018-11-01T15:41:22.571Z,20.85
2018-11-01T15:43:51.670Z,20.82
2018-11-01T15:46:21.099Z,20.74
2018-11-01T15:48:50.124Z,20.73
2018-11-01T15:51:19.209Z,20.57
2018-11-01T15:53:48.305Z,20.64
2018-11-01T15:56:17.453Z,20.62
2018-11-01T15:58:46.537Z,20.54
2018-11-01T16:01:15.906Z,20.49
2018-11-01T16:03:45.092Z,20.50
2018-11-01T16:06:24.093Z,20.51
2018-11-01T16:08:53.288Z,20.52
2018-11-01T16:11:22.533Z,20.47
2018-11-01T16:13:52.185Z,20.47
2018-11-01T16:16:22.484Z,20.43
2018-11-01T16:18:52.772Z,20.37
2018-11-01T16:21:21.889Z,20.30
2018-11-01T16:23:50.903Z,20.41
2018-11-01T16:26:20.290Z,20.36
2018-11-01T16:28:49.377Z,20.34
2018-11-01T16:31:18.481Z,20.36
2018-11-01T16:33:47.508Z,20.36
2018-11-01T16:36:16.771Z,20.23
2018-11-01T16:38:46.583Z,20.16
2018-11-01T16:41:15.652Z,20.06
2018-11-01T16:43:44.778Z,20.04
2018-11-01T16:46:13.795Z,20.00
2018-11-01T16:48:43.369Z,20.00
2018-11-01T16:51:12.902Z,20.01
2018-11-01T16:53:41.834Z,19.98
2018-11-01T16:56:10.815Z,19.88
2018-11-01T16:58:39.875Z,19.91
2018-11-01T17:01:08.846Z,19.88
2018-11-01T17:03:39.145Z,19.85
2018-11-01T17:06:08.069Z,19.79
2018-11-01T17:08:37.378Z,19.72
2018-11-01T17:11:06.367Z,19.70
2018-11-01T17:13:36.374Z,19.69
2018-11-01T17:16:05.612Z,19.60
2018-11-01T17:18:46.090Z,19.47
2018-11-01T17:21:15.454Z,19.43
2018-11-01T17:23:45.569Z,19.37
2018-11-01T17:26:14.745Z,19.31
2018-11-01T17:28:44.087Z,19.17
2018-11-01T17:31:13.425Z,19.29
2018-11-01T17:33:42.458Z,19.22
2018-11-01T17:36:11.704Z,19.20
2018-11-01T17:38:40.710Z,19.23
2018-11-01T17:41:09.781Z,19.21
2018-11-01T17:43:38.892Z,19.11
2018-11-01T17:46:08.545Z,19.16
2018-11-01T17:48:37.824Z,19.10
2018-11-01T17:51:07.050Z,19.02
2018-11-01T17:53:36.056Z,18.97
2018-11-01T17:56:05.258Z,18.85
2018-11-01T17:58:34.208Z,18.89
2018-11-01T18:01:03.487Z,18.82
2018-11-01T18:03:32.333Z,18.84
2018-11-01T18:06:01.349Z,18.88
2018-11-01T18:08:30.857Z,18.93
2018-11-01T18:11:00.127Z,18.82
2018-11-01T18:13:29.258Z,18.72
2018-11-01T18:15:58.462Z,18.77
2018-11-01T18:18:28.459Z,18.76
2018-11-01T18:20:57.493Z,18.80
2018-11-01T18:23:26.670Z,18.63
2018-11-01T18:25:56.098Z,18.73
2018-11-01T18:28:25.219Z,18.71
2018-11-01T18:30:54.494Z,18.67
2018-11-01T18:33:24.440Z,18.60
2018-11-01T18:35:53.425Z,18.55
2018-11-01T18:38:22.402Z,18.45
2018-11-01T18:40:51.522Z,18.38
2018-11-01T18:43:20.632Z,18.43
2018-11-01T18:45:49.709Z,18.42
2018-11-01T18:48:19.902Z,18.38
2018-11-01T18:50:49.086Z,18.36
2018-11-01T18:53:18.464Z,18.34
2018-11-01T18:55:49.896Z,18.23
2018-11-01T18:58:19.106Z,18.22
2018-11-01T19:00:48.673Z,18.12
2018-11-01T19:03:21.921Z,18.15
2018-11-01T19:05:51.633Z,18.25
2018-11-01T19:08:20.931Z,18.23
2018-11-01T19:10:51.823Z,18.18
2018-11-01T19:13:21.097Z,18.20
2018-11-01T19:15:50.112Z,18.19
2018-11-01T19:18:19.062Z,18.11
2018-11-01T19:20:47.993Z,18.05
2018-11-01T19:23:17.126Z,17.95
2018-11-01T19:25:46.161Z,17.89
2018-11-01T19:28:15.345Z,17.91
2018-11-01T19:30:44.469Z,17.88
2018-11-01T19:33:13.412Z,17.86
2018-11-01T19:35:44.699Z,17.83
2018-11-01T19:38:13.848Z,17.79
2018-11-01T19:40:42.893Z,17.80
2018-11-01T19:43:12.147Z,17.73
2018-11-01T19:45:41.316Z,17.74
2018-11-01T19:48:10.528Z,17.67
2018-11-01T19:50:39.888Z,17.66
2018-11-01T19:53:09.005Z,17.68
2018-11-01T19:55:38.053Z,17.68
2018-11-01T19:58:07.223Z,17.60
2018-11-01T20:00:36.368Z,17.60
2018-11-01T20:03:05.543Z,17.60
2018-11-01T20:05:34.721Z,17.55
2018-11-01T20:08:03.995Z,17.53
2018-11-01T20:10:33.219Z,17.51
2018-11-01T20:13:02.282Z,17.47
2018-11-01T20:15:31.398Z,17.44
2018-11-01T20:18:00.392Z,17.41
2018-11-01T20:20:29.942Z,17.32
2018-11-01T20:22:59.138Z,17.23
2018-11-01T20:25:28.111Z,17.21
2018-11-01T20:27:57.741Z,17.24
2018-11-01T20:30:27.727Z,17.23
2018-11-01T20:32:56.920Z,17.21
2018-11-01T20:35:26.223Z,17.13
2018-11-01T20:37:55.240Z,17.12
2018-11-01T20:40:24.249Z,17.14
2018-11-01T20:42:53.579Z,17.06
2018-11-01T20:45:22.643Z,17.05
2018-11-01T20:47:51.705Z,17.04
2018-11-01T20:50:20.768Z,17.01
2018-11-01T20:52:49.667Z,16.94
2018-11-01T20:55:18.809Z,16.92
2018-11-01T20:57:48.844Z,16.87
2018-11-01T21:00:17.976Z,16.84
2018-11-01T21:02:46.902Z,16.74
2018-11-01T21:05:16.341Z,16.74
2018-11-01T21:07:45.495Z,16.74
2018-11-01T21:10:14.716Z,16.68
2018-11-01T21:12:44.019Z,16.64
2018-11-01T21:15:14.763Z,16.54
2018-11-01T21:17:43.797Z,16.49
2018-11-01T21:20:12.817Z,16.37
2018-11-01T21:22:42.088Z,16.35
2018-11-01T21:25:12.198Z,16.34
2018-11-01T21:27:41.579Z,16.35
2018-11-01T21:30:10.913Z,16.29
2018-11-01T21:32:40.008Z,16.26
2018-11-01T21:35:09.225Z,16.28
2018-11-01T21:37:38.059Z,16.28
2018-11-01T21:40:09.494Z,16.27
2018-11-01T21:42:39.962Z,16.25
2018-11-01T21:45:11.673Z,16.28
2018-11-01T21:47:41.925Z,16.14
2018-11-01T21:50:11.987Z,16.16
2018-11-01T21:52:44.013Z,16.07
2018-11-01T21:55:13.304Z,16.12
2018-11-01T21:57:42.541Z,16.13
2018-11-01T22:00:11.815Z,16.09
2018-11-01T22:02:41.840Z,15.98
2018-11-01T22:05:11.706Z,16.02
2018-11-01T22:07:41.061Z,16.05
2018-11-01T22:10:11.012Z,15.91
2018-11-01T22:12:39.977Z,15.70
2018-11-01T22:15:11.228Z,15.73
2018-11-01T22:17:40.759Z,15.78
2018-11-01T22:20:10.510Z,15.84
2018-11-01T22:22:39.868Z,15.74
2018-11-01T22:25:09.215Z,15.81
2018-11-01T22:27:38.166Z,15.85
2018-11-01T22:30:09.027Z,15.83
2018-11-01T22:32:37.918Z,15.76
2018-11-01T22:35:07.477Z,15.73
2018-11-01T22:37:36.595Z,15.71
2018-11-01T22:40:06.064Z,15.75
2018-11-01T22:42:35.274Z,15.68
2018-11-01T22:45:04.572Z,15.73
2018-11-01T22:47:33.693Z,15.73
2018-11-01T22:50:02.777Z,15.66
2018-11-01T22:52:32.097Z,15.70
2018-11-01T22:55:01.192Z,15.72
2018-11-01T22:57:30.217Z,15.61
2018-11-01T22:59:59.471Z,15.67
2018-11-01T23:02:28.353Z,15.71
2018-11-01T23:04:57.505Z,15.70
2018-11-01T23:07:26.508Z,15.71
2018-11-01T23:09:55.577Z,15.72
2018-11-01T23:12:24.678Z,15.75
2018-11-01T23:14:53.777Z,15.76
2018-11-01T23:17:22.949Z,15.77
2018-11-01T23:19:52.159Z,15.79
2018-11-01T23:22:21.232Z,15.82
2018-11-01T23:24:50.222Z,15.84
2018-11-01T23:27:19.328Z,15.76
2018-11-01T23:29:48.562Z,15.76
2018-11-01T23:32:17.788Z,15.82
2018-11-01T23:34:46.894Z,15.87
2018-11-01T23:37:20.914Z,15.87
2018-11-01T23:39:55.160Z,15.86
2018-11-01T23:42:29.627Z,15.88
2018-11-01T23:45:03.907Z,15.87
2018-11-01T23:47:38.178Z,15.90
2018-11-01T23:50:13.623Z,15.94
2018-11-01T23:52:44.756Z,15.93
2018-11-01T23:55:13.735Z,15.95
2018-11-01T23:57:42.895Z,15.92
